Time;durP1;ratioP1;P1;durP2;ratioP2;P2;SDS_P1;SDS_P2;PMS_P1;PMS_P2;Temp;Humidity;BMP_temperature;BMP_pressure;BME280_temperature;BME280_humidity;BME280_pressure;Samples;Min_cycle;Max_cycle;Signal;HPM_P1;HPM_P2
2023/04/08 00:02:12;;;;;;;32.80;24.10;;;6.30;99.90;;;;;;4973572;28;20030;-72
2023/04/08 00:04:38;;;;;;;30.88;22.73;;;6.20;99.90;;;;;;4973012;28;20077;-72
2023/04/08 00:07:04;;;;;;;36.58;24.73;;;6.20;99.90;;;;;;4968263;28;20538;-73
2023/04/08 00:09:31;;;;;;;36.42;23.88;;;6.20;99.90;;;;;;4973141;28;20471;-72
2023/04/08 00:12:00;;;;;;;36.25;23.92;;;6.30;99.90;;;;;;4944017;28;20034;-71
2023/04/08 00:14:26;;;;;;;37.05;24.45;;;6.30;99.90;;;;;;4966284;28;20114;-72
2023/04/08 00:16:52;;;;;;;35.17;25.42;;;6.30;99.90;;;;;;4967160;28;20114;-71
2023/04/08 00:19:18;;;;;;;37.70;25.63;;;6.30;99.90;;;;;;4955919;28;20038;-71
2023/04/08 00:21:44;;;;;;;39.00;25.48;;;6.30;99.90;;;;;;4972712;28;20359;-71
2023/04/08 00:24:10;;;;;;;37.08;26.02;;;6.30;99.90;;;;;;4973215;28;20126;-71
2023/04/08 00:26:36;;;;;;;37.13;25.65;;;6.30;99.90;;;;;;4972932;28;20063;-71
2023/04/08 00:29:02;;;;;;;40.75;26.60;;;6.40;99.90;;;;;;4971345;28;20038;-72
2023/04/08 00:31:28;;;;;;;41.53;28.48;;;6.50;99.90;;;;;;4972881;28;20023;-72
2023/04/08 00:33:54;;;;;;;40.05;26.42;;;6.50;99.90;;;;;;4973311;28;20122;-72
2023/04/08 00:36:21;;;;;;;38.33;26.90;;;6.50;99.90;;;;;;4955336;28;20102;-71
2023/04/08 00:38:47;;;;;;;40.72;28.83;;;6.60;99.90;;;;;;4973132;28;20035;-72
2023/04/08 00:41:13;;;;;;;46.55;26.77;;;6.60;99.90;;;;;;4971432;28;20015;-73
2023/04/08 00:43:39;;;;;;;41.28;26.73;;;6.70;99.90;;;;;;4949494;28;20035;-72
2023/04/08 00:46:05;;;;;;;41.00;27.83;;;6.70;99.90;;;;;;4952385;28;20042;-72
2023/04/08 00:48:31;;;;;;;40.83;27.92;;;6.70;99.90;;;;;;4970790;28;20039;-72
2023/04/08 00:50:57;;;;;;;42.70;26.67;;;6.70;99.90;;;;;;4971630;28;20076;-71
2023/04/08 00:53:23;;;;;;;38.65;27.92;;;6.80;99.90;;;;;;4972662;28;20031;-72
2023/04/08 00:55:49;;;;;;;38.88;26.90;;;6.80;99.90;;;;;;4972394;28;20030;-72
2023/04/08 00:58:16;;;;;;;39.85;25.83;;;6.80;99.90;;;;;;4955384;28;20043;-73
2023/04/08 01:01:35;;;;;;;35.65;24.52;;;6.80;99.90;;;;;;4955444;28;20026;-70
2023/04/08 01:04:25;;;;;;;39.50;26.33;;;6.80;99.90;;;;;;4941423;28;20055;-71
2023/04/08 01:06:58;;;;;;;36.13;25.92;;;6.80;99.90;;;;;;4948459;29;20039;-71
2023/04/08 01:09:28;;;;;;;39.55;28.20;;;6.80;99.90;;;;;;4930748;29;20045;-73
2023/04/08 01:11:56;;;;;;;36.85;25.45;;;6.80;99.90;;;;;;4943889;29;20479;-71
2023/04/08 01:14:26;;;;;;;44.22;27.02;;;6.80;99.90;;;;;;4949108;29;20126;-70
2023/04/08 01:16:55;;;;;;;41.08;27.98;;;6.80;99.90;;;;;;4948703;28;20031;-71
2023/04/08 01:19:29;;;;;;;44.13;30.60;;;6.80;99.90;;;;;;4938217;29;20059;-71
2023/04/08 01:22:19;;;;;;;41.17;28.65;;;6.90;99.90;;;;;;4945136;29;20031;-72
2023/04/08 01:24:46;;;;;;;39.33;26.63;;;6.90;99.90;;;;;;4954454;28;20086;-71
2023/04/08 01:27:14;;;;;;;40.33;27.17;;;6.90;99.90;;;;;;4954383;28;20031;-71
2023/04/08 01:29:42;;;;;;;40.65;28.42;;;6.80;99.90;;;;;;4954539;29;20514;-70
2023/04/08 01:32:09;;;;;;;39.20;26.45;;;6.80;99.90;;;;;;4971724;28;20023;-71
2023/04/08 01:34:37;;;;;;;42.35;27.85;;;6.80;99.90;;;;;;4947533;29;20065;-71
2023/04/08 01:37:05;;;;;;;43.75;28.05;;;6.80;99.90;;;;;;4941242;29;20042;-71
2023/04/08 01:39:32;;;;;;;41.75;27.98;;;6.60;99.90;;;;;;4962936;28;20049;-73
2023/04/08 01:41:58;;;;;;;43.80;28.48;;;6.70;99.90;;;;;;4972062;28;20023;-74
2023/04/08 01:44:25;;;;;;;41.17;28.77;;;6.70;99.90;;;;;;4941682;29;20082;-73
2023/04/08 01:46:52;;;;;;;41.08;27.88;;;6.70;99.90;;;;;;4956111;28;20070;-73
2023/04/08 01:49:19;;;;;;;42.78;28.38;;;6.60;99.90;;;;;;4940983;28;20085;-72
2023/04/08 01:51:47;;;;;;;40.72;29.27;;;6.60;99.90;;;;;;4962974;28;20039;-73
2023/04/08 01:54:13;;;;;;;41.75;27.90;;;6.60;99.90;;;;;;4974492;28;20035;-73
2023/04/08 01:56:43;;;;;;;43.95;30.58;;;6.60;99.90;;;;;;4958135;28;20078;-72
2023/04/08 01:59:13;;;;;;;40.60;29.70;;;6.60;99.90;;;;;;4974326;28;20042;-72
2023/04/08 02:01:41;;;;;;;41.58;29.23;;;6.60;99.90;;;;;;4958389;28;20031;-72
2023/04/08 02:04:07;;;;;;;42.25;29.98;;;6.60;99.90;;;;;;4958051;28;20030;-72
2023/04/08 02:06:34;;;;;;;42.95;29.85;;;6.60;99.90;;;;;;4958261;28;20316;-71
2023/04/08 02:09:00;;;;;;;45.90;31.25;;;6.60;99.90;;;;;;4975154;28;20023;-72
2023/04/08 02:11:28;;;;;;;43.83;30.05;;;6.60;99.90;;;;;;4975363;28;20038;-73
2023/04/08 02:13:54;;;;;;;44.67;30.42;;;6.60;99.90;;;;;;4973648;28;20076;-71
2023/04/08 02:16:32;;;;;;;46.90;31.08;;;6.70;99.90;;;;;;4958061;28;20143;-73
2023/04/08 02:19:06;;;;;;;46.08;30.70;;;6.70;99.90;;;;;;4975053;28;20034;-73
2023/04/08 02:21:45;;;;;;;51.05;32.60;;;6.70;99.90;;;;;;4973720;28;20031;-72
2023/04/08 02:24:14;;;;;;;49.67;33.35;;;6.70;99.90;;;;;;4975343;28;20054;-72
2023/04/08 02:26:42;;;;;;;48.33;32.00;;;6.70;99.90;;;;;;4973607;28;20070;-72
2023/04/08 02:29:13;;;;;;;46.90;33.33;;;6.70;99.90;;;;;;4957774;28;20050;-72
2023/04/08 02:31:41;;;;;;;47.63;31.65;;;6.70;99.90;;;;;;4957766;28;20037;-72
2023/04/08 02:34:11;;;;;;;48.40;34.03;;;6.70;99.90;;;;;;4973758;28;20029;-72
2023/04/08 02:36:41;;;;;;;46.25;33.53;;;6.70;99.90;;;;;;4974567;28;20023;-72
2023/04/08 02:39:07;;;;;;;49.42;32.33;;;6.70;99.90;;;;;;4974442;28;20035;-72
2023/04/08 02:41:33;;;;;;;47.25;33.35;;;6.70;99.90;;;;;;4974893;28;20066;-73
2023/04/08 02:43:59;;;;;;;46.88;33.13;;;6.70;99.90;;;;;;4954054;29;20134;-73
2023/04/08 02:46:25;;;;;;;49.63;33.92;;;6.70;99.90;;;;;;4955337;29;20110;-73
2023/04/08 02:48:51;;;;;;;48.90;33.20;;;6.60;99.90;;;;;;4969618;28;20098;-73
2023/04/08 02:51:17;;;;;;;45.83;32.83;;;6.60;99.90;;;;;;4965617;28;20042;-73
2023/04/08 02:53:42;;;;;;;41.55;29.08;;;6.70;99.90;;;;;;4955457;28;20122;-72
2023/04/08 02:56:11;;;;;;;46.90;30.98;;;6.70;99.90;;;;;;4952721;28;20035;-72
2023/04/08 02:58:37;;;;;;;47.13;32.58;;;6.70;99.90;;;;;;4955221;29;20035;-72
2023/04/08 03:01:04;;;;;;;46.75;33.17;;;6.70;99.90;;;;;;4954435;28;20062;-72
2023/04/08 03:03:30;;;;;;;48.65;34.03;;;6.70;99.90;;;;;;4947040;29;20082;-72
2023/04/08 03:05:56;;;;;;;47.63;32.72;;;6.60;99.90;;;;;;4954764;29;20023;-72
2023/04/08 03:08:23;;;;;;;51.28;33.47;;;6.70;99.90;;;;;;4964413;28;20420;-71
2023/04/08 03:10:49;;;;;;;49.20;35.00;;;6.70;99.90;;;;;;4969023;28;20069;-72
2023/04/08 03:13:15;;;;;;;50.35;35.65;;;6.70;99.90;;;;;;4957811;28;20023;-73
2023/04/08 03:15:41;;;;;;;48.78;32.33;;;6.70;99.90;;;;;;4964145;28;20014;-72
2023/04/08 03:18:08;;;;;;;48.38;33.83;;;6.70;99.90;;;;;;4957211;28;20039;-73
2023/04/08 03:20:34;;;;;;;55.50;38.15;;;6.70;99.90;;;;;;4955012;29;20047;-72
2023/04/08 03:22:59;;;;;;;50.55;37.25;;;6.70;99.90;;;;;;4954424;29;20035;-73
2023/04/08 03:25:27;;;;;;;52.78;36.78;;;6.70;99.90;;;;;;4964275;28;20023;-71
2023/04/08 03:27:54;;;;;;;56.40;38.40;;;6.60;99.90;;;;;;4956552;28;20043;-72
2023/04/08 03:30:20;;;;;;;54.22;37.03;;;6.60;99.90;;;;;;4954737;29;20523;-72
2023/04/08 03:32:46;;;;;;;56.50;39.47;;;6.50;99.90;;;;;;4954203;28;20027;-71
2023/04/08 03:35:12;;;;;;;57.85;40.00;;;6.50;99.90;;;;;;4954657;28;20030;-71
2023/04/08 03:37:38;;;;;;;53.10;36.72;;;6.50;99.90;;;;;;4954148;28;20049;-72
2023/04/08 03:40:05;;;;;;;45.50;33.55;;;6.50;99.90;;;;;;4954421;28;20027;-71
2023/04/08 03:42:31;;;;;;;52.92;36.28;;;6.60;99.90;;;;;;4954562;29;20035;-71
2023/04/08 03:44:57;;;;;;;51.33;36.38;;;6.60;99.90;;;;;;4966184;28;20094;-72
2023/04/08 03:47:23;;;;;;;53.45;38.83;;;6.60;99.90;;;;;;4973794;28;20050;-72
2023/04/08 03:49:51;;;;;;;57.85;39.80;;;6.60;99.90;;;;;;4972313;28;20026;-72
2023/04/08 03:52:17;;;;;;;53.47;35.67;;;6.60;99.90;;;;;;4973964;28;20031;-73
2023/04/08 03:54:42;;;;;;;55.25;34.25;;;6.60;99.90;;;;;;4973214;28;20386;-72
2023/04/08 03:57:08;;;;;;;42.63;30.20;;;6.60;99.90;;;;;;4973018;28;20554;-72
2023/04/08 03:59:35;;;;;;;40.35;28.85;;;6.60;99.90;;;;;;4965103;28;20123;-71
2023/04/08 04:02:01;;;;;;;48.33;31.45;;;6.60;99.90;;;;;;4967068;28;20022;-70
2023/04/08 04:04:27;;;;;;;50.38;33.58;;;6.50;99.90;;;;;;4962532;28;20023;-71
2023/04/08 04:06:53;;;;;;;48.42;32.75;;;6.40;99.90;;;;;;4955617;28;20079;-71
2023/04/08 04:09:18;;;;;;;54.60;36.55;;;6.50;99.90;;;;;;4973466;28;20093;-71
2023/04/08 04:11:44;;;;;;;50.17;36.67;;;6.50;99.90;;;;;;4972986;28;20026;-71
2023/04/08 04:14:10;;;;;;;47.10;35.17;;;6.50;99.90;;;;;;4972874;28;20467;-71
2023/04/08 04:16:36;;;;;;;60.10;38.03;;;6.50;99.90;;;;;;4972800;28;20053;-71
2023/04/08 04:19:02;;;;;;;49.58;35.15;;;6.50;99.90;;;;;;4972992;28;20042;-72
2023/04/08 04:21:27;;;;;;;51.15;35.30;;;6.50;99.90;;;;;;4972892;28;20086;-72
2023/04/08 04:23:53;;;;;;;46.53;32.65;;;6.40;99.90;;;;;;4972005;28;20034;-72
2023/04/08 04:26:19;;;;;;;48.33;32.13;;;6.40;99.90;;;;;;4972693;28;20030;-72
2023/04/08 04:28:45;;;;;;;47.03;30.30;;;6.30;99.90;;;;;;4973018;28;20058;-71
2023/04/08 04:31:21;;;;;;;40.60;29.48;;;6.20;99.90;;;;;;4968709;28;20023;-71
2023/04/08 04:33:48;;;;;;;39.33;27.48;;;6.30;99.90;;;;;;4969137;28;20422;-71
2023/04/08 04:36:14;;;;;;;43.55;30.67;;;6.30;99.90;;;;;;4961360;28;20019;-71
2023/04/08 04:38:41;;;;;;;44.50;29.40;;;6.30;99.90;;;;;;4972644;28;20062;-72
2023/04/08 04:41:07;;;;;;;43.47;30.38;;;6.30;99.90;;;;;;4972666;28;20031;-70
2023/04/08 04:43:34;;;;;;;45.17;32.20;;;6.40;99.90;;;;;;4961966;28;20034;-73
2023/04/08 04:46:01;;;;;;;58.20;35.97;;;6.40;99.90;;;;;;4971905;28;20129;-74
2023/04/08 04:48:26;;;;;;;60.40;37.15;;;6.50;99.90;;;;;;4972909;28;20595;-72
2023/04/08 04:50:56;;;;;;;55.17;34.58;;;6.40;99.90;;;;;;4972870;28;20040;-70
2023/04/08 04:53:22;;;;;;;45.97;32.08;;;6.40;99.90;;;;;;4972790;28;20019;-73
2023/04/08 04:55:48;;;;;;;54.97;34.70;;;6.40;99.90;;;;;;4968423;28;20023;-73
2023/04/08 04:58:14;;;;;;;44.80;31.17;;;6.50;99.90;;;;;;4972794;28;20467;-73
2023/04/08 05:00:40;;;;;;;44.05;29.27;;;6.50;99.90;;;;;;4973833;28;20026;-73
2023/04/08 05:03:06;;;;;;;42.15;27.85;;;6.60;99.90;;;;;;4976577;28;20031;-71
2023/04/08 05:05:32;;;;;;;45.65;31.23;;;6.60;99.90;;;;;;4976499;28;20102;-74
2023/04/08 05:07:58;;;;;;;52.22;35.80;;;6.60;99.90;;;;;;4976695;28;20054;-71
2023/04/08 05:10:24;;;;;;;42.60;30.90;;;6.60;99.90;;;;;;4976274;28;20590;-73
2023/04/08 05:12:50;;;;;;;38.80;27.83;;;6.60;99.90;;;;;;4976461;28;20022;-73
2023/04/08 05:15:15;;;;;;;41.47;28.05;;;6.60;99.90;;;;;;4976242;28;20455;-73
2023/04/08 05:17:41;;;;;;;42.42;28.88;;;6.60;99.90;;;;;;4976400;28;20423;-71
2023/04/08 05:20:07;;;;;;;43.30;28.40;;;6.60;99.90;;;;;;4976535;28;20027;-73
2023/04/08 05:22:33;;;;;;;41.47;29.17;;;6.60;99.90;;;;;;4976108;28;20038;-72
2023/04/08 05:24:59;;;;;;;40.88;28.38;;;6.50;99.90;;;;;;4976542;28;20027;-72
2023/04/08 05:27:26;;;;;;;42.67;29.52;;;6.50;99.90;;;;;;4975634;28;20557;-72
2023/04/08 05:29:52;;;;;;;41.38;28.92;;;6.60;99.90;;;;;;4976318;28;20030;-73
2023/04/08 05:32:18;;;;;;;42.15;29.58;;;6.60;99.90;;;;;;4975362;28;20035;-73
2023/04/08 05:34:44;;;;;;;40.58;28.85;;;6.50;99.90;;;;;;4976291;28;20148;-74
2023/04/08 05:37:10;;;;;;;48.40;31.90;;;6.60;99.90;;;;;;4969416;28;20039;-70
2023/04/08 05:39:36;;;;;;;51.58;31.90;;;6.60;99.90;;;;;;4976190;28;20035;-74
2023/04/08 05:42:02;;;;;;;55.90;33.78;;;6.50;99.90;;;;;;4975901;28;20030;-73
2023/04/08 05:44:28;;;;;;;39.70;28.13;;;6.50;99.90;;;;;;4975572;28;20464;-73
2023/04/08 05:46:54;;;;;;;39.58;28.15;;;6.70;99.90;;;;;;4968447;28;20053;-71
2023/04/08 05:49:20;;;;;;;40.10;28.10;;;6.70;99.90;;;;;;4975015;28;20446;-73
2023/04/08 05:51:46;;;;;;;41.30;29.35;;;6.80;99.90;;;;;;4975463;28;20027;-73
2023/04/08 05:54:12;;;;;;;45.50;31.13;;;6.80;99.90;;;;;;4975769;28;20041;-72
2023/04/08 05:56:37;;;;;;;42.53;29.63;;;6.80;99.90;;;;;;4975719;28;20034;-73
2023/04/08 05:59:03;;;;;;;38.70;29.13;;;6.90;99.90;;;;;;4975414;28;20039;-73
2023/04/08 06:01:30;;;;;;;45.47;28.02;;;6.90;99.90;;;;;;4975643;28;20023;-73
2023/04/08 06:03:55;;;;;;;43.45;30.50;;;7.00;99.90;;;;;;4975256;28;20026;-73
2023/04/08 06:06:21;;;;;;;39.38;28.08;;;7.00;99.90;;;;;;4974620;28;20021;-73
2023/04/08 06:08:47;;;;;;;49.85;33.40;;;7.10;99.90;;;;;;4975310;28;20467;-70
2023/04/08 06:11:13;;;;;;;44.50;32.30;;;7.10;99.90;;;;;;4975154;28;20046;-70
2023/04/08 06:13:39;;;;;;;53.28;34.47;;;7.30;99.90;;;;;;4974463;28;20046;-73
2023/04/08 06:16:18;;;;;;;43.63;30.92;;;7.50;99.90;;;;;;4974917;28;20026;-73
2023/04/08 06:18:45;;;;;;;46.58;32.30;;;7.70;99.90;;;;;;4975670;28;20050;-73
2023/04/08 06:21:10;;;;;;;44.72;31.88;;;7.70;99.90;;;;;;4975332;28;20026;-73
2023/04/08 06:23:36;;;;;;;53.53;32.45;;;7.90;99.90;;;;;;4975059;28;20162;-71
2023/04/08 06:26:03;;;;;;;48.70;31.52;;;8.10;99.90;;;;;;4975233;28;20481;-73
2023/04/08 06:28:30;;;;;;;47.97;32.58;;;8.40;99.90;;;;;;4975508;28;20475;-74
2023/04/08 06:30:56;;;;;;;51.63;33.20;;;8.60;99.90;;;;;;4974766;28;20383;-72
2023/04/08 06:33:22;;;;;;;55.40;32.90;;;8.50;99.90;;;;;;4975403;28;20038;-72
2023/04/08 06:35:47;;;;;;;46.72;32.35;;;8.60;99.90;;;;;;4974495;28;20082;-72
2023/04/08 06:38:13;;;;;;;45.08;32.10;;;8.70;99.90;;;;;;4974847;28;20050;-75
2023/04/08 06:40:39;;;;;;;46.08;32.92;;;8.50;99.90;;;;;;4975000;28;20058;-70
2023/04/08 06:43:08;;;;;;;49.20;34.80;;;8.40;99.90;;;;;;4974506;28;20045;-74
2023/04/08 06:45:37;;;;;;;47.80;31.90;;;8.50;99.90;;;;;;4957471;28;20043;-72
2023/04/08 06:48:03;;;;;;;45.17;32.45;;;8.70;99.90;;;;;;4974850;28;20039;-73
2023/04/08 06:50:29;;;;;;;45.50;31.02;;;8.70;99.90;;;;;;4974866;28;20078;-73
2023/04/08 06:52:55;;;;;;;55.97;33.70;;;8.80;99.90;;;;;;4980173;28;20026;-72
2023/04/08 06:55:21;;;;;;;47.95;31.30;;;9.00;99.90;;;;;;4981271;28;20455;-73
2023/04/08 06:57:47;;;;;;;50.67;34.58;;;8.90;99.90;;;;;;4974585;28;20542;-72
2023/04/08 07:00:13;;;;;;;45.53;29.95;;;8.80;99.90;;;;;;4974569;28;20051;-73
2023/04/08 07:02:38;;;;;;;45.85;30.95;;;8.90;99.90;;;;;;4973459;28;20026;-73
2023/04/08 07:05:05;;;;;;;42.03;31.25;;;9.00;99.90;;;;;;4974368;28;20489;-72
2023/04/08 07:07:31;;;;;;;44.03;30.20;;;9.00;99.90;;;;;;4971684;28;20034;-73
2023/04/08 07:09:57;;;;;;;44.40;28.85;;;9.10;99.90;;;;;;4974066;28;20065;-73
2023/04/08 07:12:23;;;;;;;43.55;28.50;;;9.30;99.90;;;;;;4974160;28;20039;-73
2023/04/08 07:14:48;;;;;;;37.72;28.77;;;9.10;99.90;;;;;;4974128;28;20098;-71
2023/04/08 07:17:14;;;;;;;35.78;26.40;;;9.30;99.90;;;;;;4973532;28;20458;-72
2023/04/08 07:19:40;;;;;;;39.90;25.80;;;9.30;99.90;;;;;;4973022;28;20031;-74
2023/04/08 07:22:07;;;;;;;40.80;28.63;;;9.50;99.90;;;;;;4973936;28;20291;-75
2023/04/08 07:24:33;;;;;;;38.92;27.40;;;9.60;99.90;;;;;;4972433;28;20113;-74
2023/04/08 07:26:59;;;;;;;37.75;25.05;;;9.70;99.90;;;;;;4971990;28;20448;-71
2023/04/08 07:29:25;;;;;;;32.63;23.38;;;9.80;99.90;;;;;;4965916;28;20082;-73
2023/04/08 07:31:51;;;;;;;38.05;25.42;;;9.90;99.90;;;;;;4973618;28;20069;-73
2023/04/08 07:34:16;;;;;;;43.10;28.60;;;10.20;99.90;;;;;;4956807;28;20034;-74
2023/04/08 07:36:42;;;;;;;37.28;25.63;;;10.60;99.90;;;;;;4972257;28;20026;-72
2023/04/08 07:39:08;;;;;;;35.08;24.52;;;11.00;99.90;;;;;;4973405;28;20042;-73
2023/04/08 07:41:34;;;;;;;36.85;26.02;;;11.20;99.40;;;;;;4973642;28;20033;-73
2023/04/08 07:44:00;;;;;;;36.38;24.85;;;11.30;99.90;;;;;;4973228;28;20046;-73
2023/04/08 07:46:26;;;;;;;32.15;23.45;;;11.50;98.90;;;;;;4973047;28;20048;-73
2023/04/08 07:48:51;;;;;;;37.95;25.45;;;10.60;96.20;;;;;;4965658;28;20039;-72
2023/04/08 07:51:17;;;;;;;35.33;23.75;;;11.20;99.20;;;;;;4971868;28;20034;-71
2023/04/08 07:53:43;;;;;;;30.75;21.85;;;11.60;99.90;;;;;;4967403;28;20023;-72
2023/04/08 07:56:14;;;;;;;34.65;21.42;;;12.20;97.90;;;;;;4968078;28;20023;-73
2023/04/08 07:58:41;;;;;;;29.75;20.33;;;12.60;97.60;;;;;;4971576;28;20122;-71
2023/04/08 08:01:20;;;;;;;32.47;21.58;;;12.80;95.00;;;;;;4954976;28;20043;-72
2023/04/08 08:03:48;;;;;;;23.80;16.77;;;12.70;94.20;;;;;;4967872;28;20031;-70
2023/04/08 08:06:14;;;;;;;31.88;20.27;;;12.80;93.40;;;;;;4971415;28;20038;-71
2023/04/08 08:08:40;;;;;;;26.20;19.52;;;12.70;93.00;;;;;;4973109;28;20133;-71
2023/04/08 08:11:06;;;;;;;24.90;17.65;;;12.70;92.20;;;;;;4971563;28;20019;-72
2023/04/08 08:13:33;;;;;;;25.45;16.60;;;12.80;91.80;;;;;;4972915;28;20031;-72
2023/04/08 08:15:58;;;;;;;31.67;19.88;;;12.60;89.60;;;;;;4973002;28;20018;-73
2023/04/08 08:18:24;;;;;;;31.50;22.98;;;12.60;90.90;;;;;;4973416;28;20090;-71
2023/04/08 08:20:50;;;;;;;27.17;20.42;;;12.60;91.30;;;;;;4972801;28;20019;-69
2023/04/08 08:23:16;;;;;;;26.70;17.27;;;12.40;91.60;;;;;;4972198;28;20496;-71
2023/04/08 08:25:41;;;;;;;25.25;18.17;;;12.20;91.10;;;;;;4972668;28;20038;-73
2023/04/08 08:28:07;;;;;;;33.60;23.23;;;12.00;92.20;;;;;;4973112;28;20070;-73
2023/04/08 08:30:33;;;;;;;30.33;20.02;;;12.00;91.60;;;;;;4973015;28;20098;-72
2023/04/08 08:32:59;;;;;;;28.35;19.70;;;11.70;90.70;;;;;;4973147;28;20244;-70
2023/04/08 08:35:26;;;;;;;29.95;19.85;;;10.60;91.80;;;;;;4975205;28;20485;-75
2023/04/08 08:37:51;;;;;;;29.75;19.33;;;10.70;92.30;;;;;;4979211;28;20039;-73
2023/04/08 08:40:17;;;;;;;28.55;19.55;;;10.50;92.70;;;;;;4979573;28;20015;-70
2023/04/08 08:42:53;;;;;;;26.38;18.33;;;10.30;93.30;;;;;;4979236;28;20074;-72
2023/04/08 08:45:20;;;;;;;24.50;17.05;;;10.30;93.90;;;;;;4979091;28;20154;-72
2023/04/08 08:47:46;;;;;;;25.05;18.40;;;10.40;92.90;;;;;;4979439;28;20041;-73
2023/04/08 08:50:12;;;;;;;27.80;17.98;;;10.00;93.50;;;;;;4979136;28;20034;-73
2023/04/08 08:52:37;;;;;;;29.52;20.27;;;10.20;93.40;;;;;;4978537;28;20023;-73
2023/04/08 08:55:04;;;;;;;26.20;18.25;;;10.30;94.20;;;;;;4979207;28;20106;-71
2023/04/08 08:57:30;;;;;;;24.55;16.17;;;10.20;93.40;;;;;;4972801;28;20035;-70
2023/04/08 08:59:56;;;;;;;27.65;17.40;;;10.50;93.30;;;;;;4969860;28;20026;-71
2023/04/08 09:02:31;;;;;;;24.77;15.48;;;10.50;94.00;;;;;;4974256;28;20018;-71
2023/04/08 09:04:59;;;;;;;24.25;16.95;;;10.70;92.90;;;;;;4972643;28;20046;-72
2023/04/08 09:07:26;;;;;;;24.42;16.65;;;10.80;93.30;;;;;;4974796;28;20045;-72
2023/04/08 09:09:53;;;;;;;23.48;14.95;;;10.90;93.40;;;;;;4979104;28;20436;-72
2023/04/08 09:12:19;;;;;;;30.35;17.42;;;11.10;93.10;;;;;;4972828;28;20102;-70
2023/04/08 09:14:45;;;;;;;25.77;15.48;;;11.00;93.30;;;;;;4975828;28;20034;-72
2023/04/08 09:17:11;;;;;;;21.98;14.90;;;10.30;92.00;;;;;;4976283;28;20027;-71
2023/04/08 09:19:37;;;;;;;22.88;15.20;;;10.70;92.80;;;;;;4978742;28;20066;-72
2023/04/08 09:22:08;;;;;;;22.52;15.18;;;11.00;93.10;;;;;;4974194;28;20022;-72
2023/04/08 09:24:34;;;;;;;24.52;13.60;;;11.20;93.90;;;;;;4975868;28;20034;-70
2023/04/08 09:27:01;;;;;;;23.27;14.52;;;11.30;92.10;;;;;;4972132;28;20019;-72
2023/04/08 09:29:27;;;;;;;22.83;15.55;;;11.00;91.60;;;;;;4978754;28;20042;-74
2023/04/08 09:31:54;;;;;;;22.25;15.57;;;11.40;92.80;;;;;;4978325;28;20027;-73
2023/04/08 09:34:22;;;;;;;19.92;13.95;;;11.60;93.20;;;;;;4979067;28;20157;-72
2023/04/08 09:36:48;;;;;;;22.10;15.65;;;11.10;91.80;;;;;;4979063;28;20518;-70
2023/04/08 09:39:14;;;;;;;24.63;16.30;;;11.40;92.40;;;;;;4978422;28;20391;-73
2023/04/08 09:41:42;;;;;;;26.45;16.65;;;11.50;91.60;;;;;;4979101;28;20023;-74
2023/04/08 09:44:11;;;;;;;26.75;18.00;;;11.70;92.30;;;;;;4978609;28;20738;-73
2023/04/08 09:46:49;;;;;;;25.73;16.10;;;12.10;93.00;;;;;;4978304;28;20018;-74
2023/04/08 09:49:31;;;;;;;23.38;15.98;;;12.20;91.30;;;;;;4975690;28;20027;-72
2023/04/08 09:52:12;;;;;;;22.60;15.20;;;12.30;91.60;;;;;;4975835;28;20019;-74
2023/04/08 09:54:50;;;;;;;20.90;13.73;;;12.30;90.70;;;;;;4975502;28;20379;-72
2023/04/08 09:57:38;;;;;;;23.65;14.00;;;11.50;90.10;;;;;;4964219;28;20026;-73
2023/04/08 10:00:12;;;;;;;21.02;15.30;;;11.90;90.40;;;;;;4975342;28;20390;-73
2023/04/08 10:02:53;;;;;;;23.05;15.27;;;12.10;90.80;;;;;;4975521;28;20030;-73
2023/04/08 10:05:20;;;;;;;22.38;16.05;;;12.10;90.80;;;;;;4975682;28;20031;-74
2023/04/08 10:07:46;;;;;;;24.17;17.20;;;12.20;90.90;;;;;;4972327;28;20339;-71
2023/04/08 10:10:12;;;;;;;22.73;15.10;;;12.40;91.90;;;;;;4971218;28;20026;-71
2023/04/08 10:12:38;;;;;;;22.10;14.95;;;12.30;91.10;;;;;;4970279;28;20073;-73
2023/04/08 10:15:26;;;;;;;21.73;15.35;;;12.30;92.20;;;;;;4970182;28;20035;-71
2023/04/08 10:18:04;;;;;;;21.75;15.40;;;12.00;89.50;;;;;;4973506;28;20035;-71
2023/04/08 10:20:36;;;;;;;20.92;13.73;;;12.10;90.80;;;;;;4974906;28;20089;-74
2023/04/08 10:23:13;;;;;;;23.57;15.37;;;11.90;90.10;;;;;;4975456;28;20026;-73
2023/04/08 10:25:43;;;;;;;22.38;14.23;;;11.80;90.30;;;;;;4974558;28;20027;-73
2023/04/08 10:28:12;;;;;;;19.95;14.43;;;12.10;90.70;;;;;;4973759;28;20045;-73
2023/04/08 10:30:44;;;;;;;24.17;16.55;;;12.20;90.30;;;;;;4970058;28;20026;-73
2023/04/08 10:33:17;;;;;;;23.65;15.20;;;12.10;91.30;;;;;;4965838;28;20034;-73
2023/04/08 10:35:47;;;;;;;23.98;16.67;;;11.90;90.00;;;;;;4969580;28;20080;-72
2023/04/08 10:38:16;;;;;;;27.13;17.20;;;12.00;91.00;;;;;;4974998;28;20124;-72
2023/04/08 10:40:43;;;;;;;26.13;17.30;;;12.20;92.00;;;;;;4974248;28;20280;-73
2023/04/08 10:43:11;;;;;;;24.73;16.67;;;11.60;90.80;;;;;;4974679;28;20054;-72
2023/04/08 10:45:41;;;;;;;24.10;16.15;;;11.90;90.60;;;;;;4973793;28;20047;-72
2023/04/08 10:48:13;;;;;;;24.40;17.45;;;12.20;90.60;;;;;;4973993;28;20038;-72
2023/04/08 10:50:40;;;;;;;19.85;14.38;;;12.10;90.70;;;;;;4973237;28;20422;-72
2023/04/08 10:53:06;;;;;;;21.17;14.70;;;11.80;90.00;;;;;;4972847;28;20443;-72
2023/04/08 10:55:33;;;;;;;25.65;16.75;;;12.00;90.80;;;;;;4971328;28;20031;-73
2023/04/08 10:58:09;;;;;;;31.65;16.52;;;11.50;91.40;;;;;;4971130;28;20061;-72
2023/04/08 11:00:37;;;;;;;29.50;17.48;;;11.50;91.30;;;;;;4973669;28;21314;-72
2023/04/08 11:03:04;;;;;;;22.55;16.23;;;11.50;92.10;;;;;;4974113;28;20159;-72
2023/04/08 11:05:32;;;;;;;28.58;17.52;;;11.50;91.90;;;;;;4974274;28;20049;-72
2023/04/08 11:07:59;;;;;;;25.10;15.63;;;11.70;92.30;;;;;;4974501;28;20026;-72
2023/04/08 11:10:27;;;;;;;27.63;15.43;;;11.70;91.00;;;;;;4966980;28;20045;-72
2023/04/08 11:12:54;;;;;;;22.58;14.88;;;12.20;91.50;;;;;;4964126;28;20130;-72
2023/04/08 11:15:24;;;;;;;22.42;15.38;;;12.40;91.20;;;;;;4972885;28;20023;-72
2023/04/08 11:17:50;;;;;;;21.15;15.43;;;12.20;92.90;;;;;;4962193;28;20459;-72
2023/04/08 11:20:16;;;;;;;28.13;16.98;;;12.20;91.80;;;;;;4972696;28;20022;-73
2023/04/08 11:22:46;;;;;;;22.70;14.98;;;12.50;92.70;;;;;;4967552;28;20394;-72
2023/04/08 11:25:12;;;;;;;21.88;13.75;;;12.40;90.80;;;;;;4960932;28;20084;-72
2023/04/08 11:27:40;;;;;;;22.38;15.73;;;12.10;90.60;;;;;;4974372;28;20113;-72
2023/04/08 11:30:07;;;;;;;22.77;13.60;;;12.10;91.70;;;;;;4973396;28;20027;-71
2023/04/08 11:32:35;;;;;;;24.88;15.10;;;11.90;91.10;;;;;;4969573;28;20031;-71
2023/04/08 11:35:04;;;;;;;20.65;14.15;;;12.10;90.90;;;;;;4956700;28;20502;-71
2023/04/08 11:37:38;;;;;;;19.60;13.32;;;12.10;90.40;;;;;;4973638;28;20031;-71
2023/04/08 11:40:09;;;;;;;19.92;14.23;;;12.10;90.80;;;;;;4973638;28;20038;-71
2023/04/08 11:42:35;;;;;;;23.48;14.95;;;12.10;90.60;;;;;;4973483;28;20514;-71
2023/04/08 11:45:08;;;;;;;29.23;16.10;;;12.20;91.40;;;;;;4973591;28;20046;-71
2023/04/08 11:47:34;;;;;;;;;;;12.30;91.50;;;;;;4956912;28;20063;-71
2023/04/08 11:50:01;;;;;;;22.75;16.20;;;12.40;91.60;;;;;;4973108;28;20306;-71
2023/04/08 11:52:49;;;;;;;22.08;14.52;;;12.20;90.60;;;;;;4972714;28;20031;-71
2023/04/08 11:55:41;;;;;;;24.58;16.08;;;11.90;90.60;;;;;;4972712;28;20019;-73
2023/04/08 11:58:06;;;;;;;21.02;14.18;;;11.90;91.10;;;;;;4965742;28;20042;-71
2023/04/08 12:00:33;;;;;;;21.27;14.10;;;11.70;91.70;;;;;;4966221;28;20027;-71
2023/04/08 12:02:58;;;;;;;19.08;13.48;;;11.60;91.50;;;;;;4965596;28;20022;-71
2023/04/08 12:05:24;;;;;;;24.90;16.17;;;11.70;91.30;;;;;;4969642;28;20443;-71
2023/04/08 12:07:50;;;;;;;21.83;14.80;;;11.20;91.40;;;;;;4973317;28;20189;-71
2023/04/08 12:10:16;;;;;;;28.27;15.57;;;11.30;92.30;;;;;;4972199;28;20125;-71
2023/04/08 12:12:42;;;;;;;22.77;15.35;;;11.40;92.10;;;;;;4971563;28;20043;-71
2023/04/08 12:15:08;;;;;;;19.75;14.18;;;11.50;91.80;;;;;;4967547;28;20019;-71
2023/04/08 12:17:34;;;;;;;27.25;15.75;;;11.60;91.70;;;;;;4972967;28;20529;-70
2023/04/08 12:20:00;;;;;;;23.55;15.82;;;11.60;92.10;;;;;;4969799;28;20086;-71
2023/04/08 12:22:26;;;;;;;22.52;15.75;;;11.20;91.60;;;;;;4962953;28;20114;-72
2023/04/08 12:24:52;;;;;;;20.77;15.00;;;11.50;92.20;;;;;;4969483;28;20483;-72
2023/04/08 12:27:18;;;;;;;21.88;15.45;;;11.50;92.10;;;;;;4972704;28;20467;-72
2023/04/08 12:29:45;;;;;;;27.08;16.98;;;11.70;92.30;;;;;;4972698;28;20062;-72
2023/04/08 12:32:11;;;;;;;23.42;15.68;;;11.70;93.90;;;;;;4960840;28;20055;-70
2023/04/08 12:34:37;;;;;;;24.48;16.67;;;11.40;92.60;;;;;;4973024;28;20382;-70
2023/04/08 12:37:03;;;;;;;25.55;17.27;;;11.60;93.00;;;;;;4972593;28;20027;-71